Time;durP1;ratioP1;P1;durP2;ratioP2;P2;SDS_P1;SDS_P2;PMS_P1;PMS_P2;Temp;Humidity;BMP_temperature;BMP_pressure;BME280_temperature;BME280_humidity;BME280_pressure;Samples;Min_cycle;Max_cycle;Signal;HPM_P1;HPM_P2
2022/12/28 09:45:22;;;;;;;1.77;1.37;;;;;;;7.10;100.00;99121.69;5172380;27;20520;-83
2022/12/28 09:47:54;;;;;;;1.53;1.40;;;;;;;7.67;98.10;99114.69;5153922;27;39858;-86
2022/12/28 09:50:31;;;;;;;3.57;1.80;;;;;;;8.37;92.38;99136.91;5171927;27;42221;-85
2022/12/28 09:53:19;;;;;;;2.07;1.63;;;;;;;8.96;88.94;99137.38;5171182;27;42068;-84
2022/12/28 09:55:55;;;;;;;2.73;1.43;;;;;;;9.28;84.94;99134.84;5153680;27;41662;-84
2022/12/28 09:58:23;;;;;;;1.63;1.17;;;;;;;9.56;82.28;99140.38;5154111;27;40367;-85
2022/12/28 10:00:55;;;;;;;2.27;1.20;;;;;;;9.95;80.94;99160.31;5171369;27;41734;-84
2022/12/28 10:03:26;;;;;;;1.63;1.27;;;;;;;10.15;76.95;99167.97;5153595;27;42563;-84
2022/12/28 10:05:57;;;;;;;1.43;1.10;;;;;;;10.31;75.49;99150.34;5153754;27;43121;-84
2022/12/28 10:08:26;;;;;;;4.10;1.23;;;;;;;10.68;73.00;99164.97;5153483;27;38827;-82
2022/12/28 10:10:59;;;;;;;1.80;1.27;;;;;;;10.94;71.69;99152.84;5153732;27;41707;-83
2022/12/28 10:13:33;;;;;;;2.23;1.30;;;;;;;11.38;71.08;99136.06;5153457;27;42226;-85
2022/12/28 10:16:05;;;;;;;2.70;1.40;;;;;;;12.04;66.49;99156.72;5153907;27;41130;-83
2022/12/28 10:18:36;;;;;;;1.90;1.30;;;;;;;12.71;64.51;99174.44;5153402;27;38718;-84
2022/12/28 10:21:05;;;;;;;1.57;1.20;;;;;;;13.43;63.02;99166.94;5153437;27;40430;-86
2022/12/28 10:23:36;;;;;;;1.10;0.90;;;;;;;14.71;57.65;99196.72;5170228;27;43414;-86
2022/12/28 10:26:06;;;;;;;2.10;1.00;;;;;;;15.67;56.03;99199.28;5152998;27;43099;-85
2022/12/28 10:28:43;;;;;;;2.83;1.37;;;;;;;16.11;53.58;99201.09;5152969;27;40536;-85
2022/12/28 10:31:13;;;;;;;1.57;1.03;;;;;;;15.83;52.83;99151.69;5153532;27;40618;-85
2022/12/28 10:33:42;;;;;;;2.30;1.00;;;;;;;16.20;53.19;99188.81;5152736;27;42735;-86
2022/12/28 10:36:12;;;;;;;3.97;1.00;;;;;;;16.98;51.99;99180.63;5153027;27;41484;-86
2022/12/28 10:38:43;;;;;;;1.60;1.20;;;;;;;18.43;47.58;99203.72;5152710;27;39048;-84
2022/12/28 10:42:05;;;;;;;1.97;1.00;;;;;;;19.52;43.71;99217.88;5152683;27;42580;-85
2022/12/28 10:49:16;;;;;;;1.53;1.00;;;;;;;22.77;38.86;99239.97;5172146;27;42806;-86
2022/12/28 10:51:59;;;;;;;1.10;1.00;;;;;;;23.95;36.71;99217.97;5156360;27;38684;-83
2022/12/28 10:54:27;;;;;;;0.90;0.90;;;;;;;24.42;35.82;99219.88;5155227;27;41960;-88
2022/12/28 10:56:55;;;;;;;1.17;1.00;;;;;;;23.94;35.13;99222.53;5141917;27;42344;-86
2022/12/28 10:59:26;;;;;;;1.57;1.00;;;;;;;23.31;35.86;99213.41;5142183;27;41428;-86
2022/12/28 11:01:56;;;;;;;1.20;0.63;;;;;;;22.22;35.90;99210.72;5142454;27;38803;-86
2022/12/28 11:04:26;;;;;;;1.67;1.53;;;;;;;20.98;38.64;99190.19;5142036;27;41668;-84
2022/12/28 11:06:57;;;;;;;1.50;1.10;;;;;;;19.94;39.40;99171.78;5142510;27;41579;-86
2022/12/28 11:09:27;;;;;;;1.57;1.30;;;;;;;19.25;41.37;99156.81;5142026;27;42016;-86
2022/12/28 11:12:09;;;;;;;1.00;0.90;;;;;;;18.78;42.79;99155.00;5142338;27;38573;-86
2022/12/28 11:14:38;;;;;;;3.67;1.30;;;;;;;18.30;43.48;99140.47;5142353;27;40844;-86
2022/12/28 11:17:17;;;;;;;2.23;0.93;;;;;;;17.99;42.69;99141.53;5141838;27;42040;-85
2022/12/28 11:19:48;;;;;;;1.17;0.90;;;;;;;18.07;42.94;99144.38;5141612;27;41186;-87
2022/12/28 11:22:21;;;;;;;1.10;0.80;;;;;;;17.73;43.57;99102.78;5142438;27;38922;-85
2022/12/28 11:24:49;;;;;;;2.50;0.80;;;;;;;18.05;44.44;99130.25;5141703;27;42059;-86
2022/12/28 11:27:19;;;;;;;2.20;0.70;;;;;;;18.43;42.69;99112.56;5141898;27;41443;-85
2022/12/28 11:29:50;;;;;;;2.73;1.07;;;;;;;19.61;41.82;99111.38;5141685;27;42771;-86
2022/12/28 11:32:23;;;;;;;1.63;0.90;;;;;;;20.58;39.41;99138.63;5159683;27;38814;-86
2022/12/28 11:34:54;;;;;;;2.37;1.00;;;;;;;21.20;39.21;99126.97;5141326;27;40601;-86
2022/12/28 11:37:22;;;;;;;2.60;1.07;;;;;;;21.67;37.53;99153.56;5141782;27;41919;-85
2022/12/28 11:39:51;;;;;;;2.50;1.00;;;;;;;20.83;37.92;99137.88;5141590;27;40990;-87
2022/12/28 11:42:56;;;;;;;1.27;0.90;;;;;;;19.52;39.48;99128.38;5141901;27;40337;-86
2022/12/28 11:45:50;;;;;;;1.27;0.90;;;;;;;18.94;39.68;99115.00;5139370;27;41033;-85
2022/12/28 11:48:47;;;;;;;2.30;1.00;;;;;;;19.11;39.98;99108.94;5158610;27;42954;-86
2022/12/28 11:51:18;;;;;;;0.83;0.70;;;;;;;19.41;40.01;99105.16;5141428;27;41021;-84
2022/12/28 11:53:57;;;;;;;1.10;0.90;;;;;;;18.93;40.77;99100.75;5141205;27;38979;-86
2022/12/28 11:56:26;;;;;;;1.27;0.80;;;;;;;18.56;41.62;99081.78;5141811;27;42088;-85
2022/12/28 11:59:03;;;;;;;1.50;1.20;;;;;;;18.64;41.00;99089.19;5141105;27;43002;-85
2022/12/28 12:01:45;;;;;;;1.37;0.73;;;;;;;18.53;40.54;99091.97;5155768;27;41991;-86
2022/12/28 12:04:36;;;;;;;1.80;1.00;;;;;;;18.11;42.41;99092.19;5140827;27;38893;-84
2022/12/28 12:07:42;;;;;;;1.00;0.70;;;;;;;17.78;42.26;99079.13;5157781;27;40786;-85
2022/12/28 12:10:33;;;;;;;1.97;0.90;;;;;;;17.35;43.09;99074.81;5141195;27;41868;-88
2022/12/28 12:13:19;;;;;;;1.00;0.80;;;;;;;17.87;42.77;99060.41;5140802;27;41489;-86
2022/12/28 12:15:49;;;;;;;1.97;0.97;;;;;;;18.04;41.97;99032.09;5140471;27;39480;-85
2022/12/28 12:18:20;;;;;;;1.00;0.70;;;;;;;18.48;41.19;99035.22;5140866;27;41835;-86
2022/12/28 12:20:59;;;;;;;1.23;0.87;;;;;;;19.99;40.21;99070.91;5140997;27;43575;-87
2022/12/28 12:23:41;;;;;;;1.10;1.00;;;;;;;21.91;36.56;99090.81;5140599;27;41153;-87
2022/12/28 12:26:21;;;;;;;1.93;1.00;;;;;;;22.55;34.97;99088.34;5140843;27;39454;-87
2022/12/28 12:28:52;;;;;;;0.87;0.83;;;;;;;22.41;35.03;99086.31;5140482;27;41554;-88
2022/12/28 12:31:28;;;;;;;1.07;0.70;;;;;;;22.98;34.12;99108.03;5141172;27;42004;-85
2022/12/28 12:34:00;;;;;;;1.30;1.00;;;;;;;23.72;33.99;99101.53;5140201;27;41351;-87
2022/12/28 12:36:47;;;;;;;2.63;1.07;;;;;;;23.10;32.89;99095.00;5140759;27;38647;-83
2022/12/28 12:39:33;;;;;;;3.23;1.00;;;;;;;21.41;35.80;99083.47;5139458;27;42567;-85
2022/12/28 12:42:11;;;;;;;1.97;1.10;;;;;;;20.51;37.30;99073.84;5139799;27;41630;-86
2022/12/28 12:44:51;;;;;;;1.63;1.23;;;;;;;20.49;37.07;99058.84;5139287;27;43939;-84
2022/12/28 12:47:52;;;;;;;0.80;0.80;;;;;;;20.43;38.02;99045.00;5139233;27;39929;-85
2022/12/28 12:50:33;;;;;;;2.13;1.30;;;;;;;20.53;37.65;99054.81;5139320;27;40725;-85
2022/12/28 12:53:06;;;;;;;1.50;0.87;;;;;;;20.65;38.08;99042.81;5139898;27;43137;-86
2022/12/28 12:55:48;;;;;;;1.00;0.80;;;;;;;21.19;37.42;99032.84;5140472;27;41204;-84
2022/12/28 12:58:24;;;;;;;1.70;1.10;;;;;;;21.12;37.25;99052.31;5155127;27;40148;-82
2022/12/28 13:01:19;;;;;;;1.77;1.00;;;;;;;20.43;38.37;99023.47;5140509;27;42057;-85
2022/12/28 13:03:49;;;;;;;2.00;1.37;;;;;;;20.31;38.76;99029.19;5139941;27;42753;-85
2022/12/28 13:06:21;;;;;;;0.97;0.87;;;;;;;20.49;38.33;99027.41;5138473;27;40930;-85
2022/12/28 13:08:52;;;;;;;2.43;1.00;;;;;;;20.47;38.74;99017.78;5139910;27;39250;-84
2022/12/28 13:11:21;;;;;;;1.63;0.80;;;;;;;19.88;38.77;99005.75;5150575;27;41745;-85
2022/12/28 13:13:51;;;;;;;1.70;1.20;;;;;;;19.07;39.44;99015.38;5138212;27;42785;-84
2022/12/28 13:16:23;;;;;;;3.60;0.80;;;;;;;18.11;41.21;98998.38;5138823;27;42303;-83
2022/12/28 13:18:57;;;;;;;2.00;1.10;;;;;;;17.46;42.42;98994.38;5127331;27;39628;-82
2022/12/28 13:21:26;;;;;;;2.83;0.90;;;;;;;16.81;43.53;98987.59;5138476;27;40511;-85
2022/12/28 13:23:55;;;;;;;1.90;0.80;;;;;;;16.32;45.09;98963.34;5129303;27;41662;-86
2022/12/28 13:26:27;;;;;;;1.40;0.90;;;;;;;15.98;45.98;98970.63;5143614;27;42461;-86
2022/12/28 13:28:58;;;;;;;2.03;1.10;;;;;;;15.32;46.96;98908.44;5139476;27;39764;-85
2022/12/28 13:31:34;;;;;;;1.43;0.87;;;;;;;15.34;47.56;98944.66;5127443;27;41810;-86
2022/12/28 13:34:05;;;;;;;1.43;1.20;;;;;;;15.10;48.22;98941.31;5123772;27;43823;-86
2022/12/28 13:36:33;;;;;;;4.00;1.40;;;;;;;14.85;48.61;98946.88;5135641;27;41309;-86
2022/12/28 13:39:10;;;;;;;1.57;1.20;;;;;;;14.50;49.69;98918.50;5118353;27;40290;-86
2022/12/28 13:41:48;;;;;;;1.63;1.20;;;;;;;14.23;49.90;98897.44;5118836;27;42041;-85
2022/12/28 13:52:27;;;;;;;1.33;1.07;;;;;;;13.47;51.99;98881.97;5010171;28;40672;-88
2022/12/28 13:54:58;;;;;;;1.97;1.20;;;;;;;13.43;52.81;98906.22;4996172;28;41835;-87
2022/12/28 13:57:30;;;;;;;2.90;1.10;;;;;;;13.32;52.87;98915.00;5054091;28;44282;-86
2022/12/28 13:59:58;;;;;;;2.73;1.10;;;;;;;13.20;53.24;98911.41;5114059;27;42298;-87
2022/12/28 14:02:27;;;;;;;2.47;1.30;;;;;;;12.99;53.42;98891.63;5119815;27;38803;-85
2022/12/28 14:04:57;;;;;;;4.30;1.70;;;;;;;12.98;54.08;98913.88;5150796;27;40301;-85
2022/12/28 14:07:30;;;;;;;2.23;1.67;;;;;;;12.92;53.94;98909.84;5133243;27;43066;-87
2022/12/28 14:09:58;;;;;;;1.70;1.37;;;;;;;12.73;54.28;98890.88;5132587;27;42675;-86
2022/12/28 14:12:27;;;;;;;1.30;1.17;;;;;;;12.69;54.87;98896.50;5133434;27;39048;-85
2022/12/28 14:14:55;;;;;;;1.67;1.10;;;;;;;12.58;55.38;98892.78;5131816;27;41052;-86
2022/12/28 14:17:24;;;;;;;1.20;1.10;;;;;;;12.54;55.47;98896.59;5119885;27;42205;-88
2022/12/28 14:19:56;;;;;;;1.83;1.27;;;;;;;12.32;56.20;98869.00;5138395;27;41431;-86
2022/12/28 14:22:41;;;;;;;1.40;1.20;;;;;;;12.42;56.17;98885.97;5120437;27;39891;-87
2022/12/28 14:25:11;;;;;;;2.77;1.23;;;;;;;12.23;56.28;98873.16;5119941;27;41222;-86
2022/12/28 14:27:42;;;;;;;1.90;1.07;;;;;;;12.33;56.74;98879.50;5119058;27;41716;-86
2022/12/28 14:30:25;;;;;;;2.03;1.30;;;;;;;12.28;56.75;98881.63;5119209;27;41463;-87
2022/12/28 14:32:54;;;;;;;2.23;1.10;;;;;;;12.23;56.70;98873.16;5122070;27;39041;-87
2022/12/28 14:35:28;;;;;;;1.90;1.20;;;;;;;12.12;57.18;98854.41;5139132;27;41419;-88
2022/12/28 14:38:00;;;;;;;2.03;1.30;;;;;;;12.16;57.36;98858.56;5122045;27;44248;-87
2022/12/28 14:40:31;;;;;;;1.90;1.47;;;;;;;12.09;57.43;98874.09;5122181;27;41950;-88
2022/12/28 14:43:05;;;;;;;1.30;1.10;;;;;;;12.04;57.64;98865.56;5122052;27;39176;-86
2022/12/28 14:45:55;;;;;;;1.53;1.40;;;;;;;11.98;57.97;98873.13;5121605;27;42155;-86
2022/12/28 14:48:30;;;;;;;2.53;1.40;;;;;;;11.91;58.17;98869.16;5122183;27;42792;-85
2022/12/28 14:51:01;;;;;;;3.33;1.50;;;;;;;11.84;58.48;98866.94;5121473;27;42339;-86
2022/12/28 14:53:31;;;;;;;1.67;1.53;;;;;;;11.70;58.57;98852.88;5121855;27;40969;-86
2022/12/28 14:56:02;;;;;;;2.23;1.33;;;;;;;11.74;59.24;98868.47;5121501;27;41937;-87
2022/12/28 14:58:37;;;;;;;2.60;1.30;;;;;;;11.65;59.44;98858.47;5139186;27;43167;-86
2022/12/28 15:01:08;;;;;;;1.40;1.30;;;;;;;11.50;59.31;98844.41;5121296;27;41636;-87
2022/12/28 15:03:49;;;;;;;2.07;1.20;;;;;;;11.58;59.69;98862.50;5121918;27;38802;-86
2022/12/28 15:06:18;;;;;;;1.37;1.23;;;;;;;11.47;59.90;98839.34;5137572;27;42054;-86
2022/12/28 15:08:49;;;;;;;3.53;1.43;;;;;;;11.27;60.07;98809.78;5121489;27;41618;-85
2022/12/28 15:11:18;;;;;;;2.23;1.30;;;;;;;11.35;60.47;98831.34;5139047;27;42491;-87
2022/12/28 15:13:46;;;;;;;2.27;1.57;;;;;;;11.42;60.01;98845.88;5121405;27;40486;-87
2022/12/28 15:16:15;;;;;;;3.20;1.40;;;;;;;11.27;60.62;98820.38;5138488;27;40596;-86
2022/12/28 15:18:43;;;;;;;1.93;1.33;;;;;;;11.36;60.72;98847.16;5138619;27;42248;-86
2022/12/28 15:21:13;;;;;;;3.50;1.37;;;;;;;11.18;61.11;98815.69;5138341;27;42502;-87
2022/12/28 15:23:40;;;;;;;2.70;1.13;;;;;;;11.06;61.15;98807.59;5121243;27;38980;-87
2022/12/28 15:26:11;;;;;;;2.57;1.57;;;;;;;11.18;61.33;98828.94;5121040;27;43201;-87
2022/12/28 15:28:39;;;;;;;2.70;1.60;;;;;;;10.94;61.64;98811.03;5121418;27;41750;-86
2022/12/28 15:31:08;;;;;;;3.60;1.50;;;;;;;10.77;61.96;98800.66;5121029;27;43207;-86
2022/12/28 15:33:36;;;;;;;2.70;1.73;;;;;;;10.70;62.33;98809.97;5121217;27;39101;-87
2022/12/28 15:36:04;;;;;;;3.67;1.80;;;;;;;10.52;63.01;98796.06;5138259;27;41797;-86
2022/12/28 15:38:33;;;;;;;1.80;1.10;;;;;;;10.48;63.57;98805.19;5121477;27;41710;-87
2022/12/28 15:41:44;;;;;;;2.93;1.40;;;;;;;10.27;63.83;98799.41;5120870;27;41113;-88
2022/12/28 15:43:54;;;;;;;1.90;1.43;;;;;;;10.13;64.97;98794.13;5138461;27;40167;-85
2022/12/28 15:46:22;;;;;;;4.77;1.60;;;;;;;10.06;65.54;98798.06;5120891;27;41097;-86
2022/12/28 15:48:50;;;;;;;1.37;1.13;;;;;;;9.79;65.62;98754.78;5120560;27;44315;-86
2022/12/28 15:51:18;;;;;;;3.10;1.67;;;;;;;9.78;66.18;98776.88;5137966;27;41621;-86
2022/12/28 15:53:45;;;;;;;2.57;1.47;;;;;;;9.72;66.57;98784.25;5121157;27;39205;-87
2022/12/28 15:56:21;;;;;;;2.30;1.73;;;;;;;9.71;66.97;98801.06;5120629;27;42000;-86
2022/12/28 15:58:49;;;;;;;2.80;1.50;;;;;;;9.55;67.53;98779.09;5138466;27;41750;-87
2022/12/28 16:01:18;;;;;;;3.27;2.00;;;;;;;9.50;67.84;98760.06;5121086;27;41156;-86
2022/12/28 16:03:49;;;;;;;3.17;2.00;;;;;;;9.52;68.36;98779.28;5137812;27;39967;-86
2022/12/28 16:06:17;;;;;;;2.33;1.87;;;;;;;9.31;68.14;98756.78;5125466;27;40962;-86
2022/12/28 16:08:45;;;;;;;2.97;1.87;;;;;;;9.37;68.96;98769.66;5122651;27;41704;-85
2022/12/28 16:11:17;;;;;;;2.47;1.30;;;;;;;9.15;69.38;98745.44;5120804;27;41261;-86
2022/12/28 16:13:51;;;;;;;2.03;1.40;;;;;;;9.07;69.13;98737.06;5121139;27;38884;-85
2022/12/28 16:16:21;;;;;;;1.80;1.70;;;;;;;9.06;69.20;98745.94;5120917;27;40777;-86
2022/12/28 16:18:50;;;;;;;4.33;1.60;;;;;;;9.26;69.16;98778.22;5120877;27;41644;-86
2022/12/28 16:21:18;;;;;;;1.87;1.43;;;;;;;9.27;69.44;98779.06;5120365;27;41796;-86
2022/12/28 16:23:48;;;;;;;3.60;1.53;;;;;;;9.05;68.91;98755.66;5121228;27;38857;-87
2022/12/28 16:26:16;;;;;;;1.77;1.30;;;;;;;9.14;69.50;98775.44;5120041;27;41051;-85
2022/12/28 16:28:44;;;;;;;2.23;1.33;;;;;;;9.08;69.20;98771.34;5137504;27;41602;-87
2022/12/28 16:31:25;;;;;;;1.83;1.23;;;;;;;9.14;69.35;98791.28;5120429;27;41751;-88
2022/12/28 16:33:53;;;;;;;2.83;1.50;;;;;;;9.02;69.43;98773.50;5120019;27;38910;-86
2022/12/28 16:36:22;;;;;;;2.20;1.80;;;;;;;9.13;69.41;98786.94;5119992;27;42187;-86
2022/12/28 16:38:50;;;;;;;5.47;3.77;;;;;;;9.08;68.86;98781.91;5119590;27;41703;-86
2022/12/28 16:41:18;;;;;;;2.00;1.50;;;;;;;9.09;68.78;98778.31;5119913;27;41273;-86
2022/12/28 16:43:46;;;;;;;2.40;1.93;;;;;;;8.92;69.14;98766.06;5120075;27;38782;-88
2022/12/28 16:46:14;;;;;;;2.93;1.60;;;;;;;8.93;69.25;98778.34;5119339;27;41905;-86
2022/12/28 16:48:43;;;;;;;2.80;1.60;;;;;;;8.82;70.05;98764.91;5119784;27;42072;-86
2022/12/28 16:51:12;;;;;;;1.73;1.63;;;;;;;8.78;69.82;98771.28;5119739;27;42528;-86
2022/12/28 16:53:40;;;;;;;2.13;1.70;;;;;;;8.58;69.99;98750.44;5119382;27;40582;-85
2022/12/28 16:56:08;;;;;;;3.60;2.20;;;;;;;8.64;71.08;98771.22;5136596;27;40735;-85
2022/12/28 16:58:35;;;;;;;2.27;1.97;;;;;;;8.51;70.94;98764.94;5119856;27;43098;-87
2022/12/28 17:01:07;;;;;;;2.07;1.53;;;;;;;8.57;70.84;98769.84;5119484;27;41922;-86
2022/12/28 17:03:34;;;;;;;2.63;2.07;;;;;;;8.49;71.04;98757.09;5119766;27;39977;-86
2022/12/28 17:06:04;;;;;;;2.83;1.90;;;;;;;8.62;71.38;98768.69;5119431;27;41647;-86
2022/12/28 17:08:34;;;;;;;1.53;1.43;;;;;;;8.66;71.74;98758.78;5119771;27;42948;-86
2022/12/28 17:11:02;;;;;;;2.27;1.80;;;;;;;8.60;71.56;98735.38;5119151;27;41035;-87
2022/12/28 17:13:30;;;;;;;2.53;2.20;;;;;;;8.67;71.91;98742.00;5119867;27;39918;-86
2022/12/28 17:16:00;;;;;;;2.67;1.90;;;;;;;8.71;71.26;98732.13;5119424;27;40811;-86
2022/12/28 17:18:30;;;;;;;1.80;1.70;;;;;;;8.86;71.08;98750.59;5119241;27;42260;-85
2022/12/28 17:21:00;;;;;;;3.20;1.67;;;;;;;8.88;71.07;98748.72;5154173;27;43043;-86
2022/12/28 17:23:29;;;;;;;2.13;1.53;;;;;;;8.79;71.28;98727.25;5119335;27;38704;-86
2022/12/28 17:25:59;;;;;;;3.93;2.17;;;;;;;8.80;71.08;98728.94;5119125;27;41924;-85
2022/12/28 17:28:30;;;;;;;2.87;1.90;;;;;;;8.86;71.29;98745.31;5119304;27;44181;-86
2022/12/28 17:31:06;;;;;;;2.63;2.00;;;;;;;8.80;71.73;98740.38;5119574;27;41218;-86
2022/12/28 17:33:34;;;;;;;1.97;1.77;;;;;;;8.70;71.75;98728.63;5119126;27;40817;-87
2022/12/28 17:36:02;;;;;;;2.30;2.10;;;;;;;8.58;72.32;98716.97;5119083;27;41371;-86
2022/12/28 17:38:31;;;;;;;2.90;2.07;;;;;;;8.60;72.83;98730.94;5119489;27;41665;-84
2022/12/28 17:41:07;;;;;;;2.87;2.30;;;;;;;8.68;72.88;98727.00;5118519;27;41384;-85
2022/12/28 17:43:35;;;;;;;3.20;2.40;;;;;;;8.57;72.97;98711.78;5119455;27;39018;-85
2022/12/28 17:46:03;;;;;;;3.33;2.50;;;;;;;8.57;72.95;98714.44;5153380;27;42670;-87
2022/12/28 17:48:31;;;;;;;3.33;2.50;;;;;;;8.65;72.95;98725.41;5118418;27;43171;-87
2022/12/28 17:50:59;;;;;;;2.70;2.17;;;;;;;8.57;72.89;98707.34;5135932;27;41000;-87
2022/12/28 17:53:30;;;;;;;2.77;2.53;;;;;;;8.69;72.45;98716.38;5118826;27;39150;-87
2022/12/28 17:56:02;;;;;;;3.67;2.23;;;;;;;8.67;73.13;98704.19;5134183;27;41898;-85
2022/12/28 17:58:30;;;;;;;2.60;2.40;;;;;;;8.53;72.64;98679.44;5118710;27;42200;-86
2022/12/28 18:00:59;;;;;;;2.50;2.30;;;;;;;8.65;72.29;98694.56;5119049;27;42594;-85
2022/12/28 18:03:27;;;;;;;2.83;2.33;;;;;;;8.79;72.33;98712.25;5135747;27;38895;-86
2022/12/28 18:05:54;;;;;;;3.33;2.63;;;;;;;8.77;72.40;98697.47;5138122;27;40793;-86
2022/12/28 18:08:22;;;;;;;2.30;2.10;;;;;;;8.84;72.08;98704.94;5122115;27;41652;-86
2022/12/28 18:10:50;;;;;;;2.37;2.17;;;;;;;8.80;71.77;98689.34;5122604;27;40986;-85
2022/12/28 18:13:19;;;;;;;2.47;2.07;;;;;;;8.87;71.48;98696.00;5122341;27;40755;-87
2022/12/28 18:15:47;;;;;;;4.53;2.47;;;;;;;8.86;71.74;98697.78;5139391;27;42079;-86
2022/12/28 18:18:17;;;;;;;2.53;1.90;;;;;;;8.97;71.61;98707.72;5121578;27;42067;-87
2022/12/28 18:20:44;;;;;;;4.07;2.13;;;;;;;8.88;71.55;98695.06;5122159;27;43598;-87
2022/12/28 18:23:14;;;;;;;3.83;2.03;;;;;;;8.90;71.56;98696.63;5122367;27;39517;-85
2022/12/28 18:25:42;;;;;;;2.37;2.07;;;;;;;8.91;71.40;98693.06;5121961;27;40817;-87
2022/12/28 18:28:09;;;;;;;2.40;1.70;;;;;;;8.91;71.22;98684.28;5121562;27;42274;-85
2022/12/28 18:30:39;;;;;;;3.10;2.27;;;;;;;8.88;71.18;98674.78;5139339;27;42773;-86
2022/12/28 18:33:07;;;;;;;2.00;1.90;;;;;;;8.85;71.18;98674.94;5121865;27;39279;-86
2022/12/28 18:35:35;;;;;;;2.90;2.07;;;;;;;8.88;71.37;98664.22;5121919;27;40666;-85
2022/12/28 18:38:02;;;;;;;2.57;2.00;;;;;;;8.90;71.26;98659.66;5121992;27;41941;-86
2022/12/28 18:40:30;;;;;;;3.07;1.83;;;;;;;8.92;70.83;98652.50;5121960;27;42042;-87
2022/12/28 18:42:58;;;;;;;3.10;1.90;;;;;;;8.92;71.03;98651.66;5121874;27;38934;-85
2022/12/28 18:45:25;;;;;;;2.60;1.93;;;;;;;8.86;70.89;98639.69;5122048;27;41002;-85
2022/12/28 18:47:55;;;;;;;2.53;1.63;;;;;;;9.05;71.22;98665.00;5121356;27;41716;-85
2022/12/28 18:50:23;;;;;;;1.80;1.70;;;;;;;8.84;71.15;98620.44;5121978;27;42272;-85
2022/12/28 18:52:51;;;;;;;2.43;2.20;;;;;;;8.92;70.61;98619.97;5121575;27;38876;-87
2022/12/28 18:55:20;;;;;;;3.03;2.00;;;;;;;8.89;70.67;98623.66;5138552;27;41837;-85
2022/12/28 18:57:47;;;;;;;2.63;2.00;;;;;;;8.95;70.60;98633.84;5121768;27;41897;-84
2022/12/28 19:00:15;;;;;;;2.20;1.90;;;;;;;8.92;70.77;98634.03;5121509;27;42292;-87
2022/12/28 19:02:43;;;;;;;2.73;1.60;;;;;;;9.00;70.89;98639.72;5121318;27;40160;-87
2022/12/28 19:05:12;;;;;;;3.50;2.53;;;;;;;8.86;70.77;98618.56;5138567;27;42070;-88
2022/12/28 19:07:40;;;;;;;5.33;3.10;;;;;;;8.77;70.76;98616.47;5121058;27;41705;-88
2022/12/28 19:10:12;;;;;;;3.43;2.93;;;;;;;8.80;71.00;98618.91;5121482;27;41548;-87
2022/12/28 19:12:43;;;;;;;4.07;2.63;;;;;;;8.88;71.03;98626.41;5121035;27;38961;-86
2022/12/28 19:15:11;;;;;;;2.43;2.20;;;;;;;8.69;70.80;98592.28;5121658;27;40971;-87
2022/12/28 19:17:39;;;;;;;2.67;2.07;;;;;;;8.82;70.91;98603.81;5120967;27;42787;-86
2022/12/28 19:20:12;;;;;;;2.43;2.23;;;;;;;8.82;70.71;98605.63;5138435;27;41225;-85
2022/12/28 19:22:40;;;;;;;2.50;2.30;;;;;;;8.81;70.89;98599.47;5121286;27;38956;-87
2022/12/28 19:25:09;;;;;;;2.63;2.40;;;;;;;8.71;70.78;98587.78;5121261;27;40832;-87
